メインページ
METAR-TAF:

METAR-TAF

空港 :

トロンハイム, ノルウェー

緯度: 63-28N, 経度: 010-56E, 海抜: 1m

現時点の気象観測

当レポートは19分前の03:50(UTC)に作成
東/北東の風 5kt、北東からの間で変化する
気温 6°C
湿度 75%
気圧 1013 hPa
視程10km以上
高度4500ftの雲は散在している
高度6400ftの千切れ雲あり

METAR: ENVA 150350Z 07005KT 040V100 9999 SCT045 BKN064 06/02 Q1013 RMK WIND 670FT 14010KT

時間: 05:09 (04:09 UTC)

予報

予報は15日の 00時(UTC)から 15日の 24時(UTC)まで有効
東/南東の風 7kt
視程10km以上
1,500メートル以下は雲なし、積乱雲なし

TAF: ENVA 1500/1524 11007KT CAVOK

4,000以上の空港の気象観測と天気予報(METAR報とTAF報)

利用可能な観測所は地図上に黄色い丸と赤い丸で示す。

丸の上にカーソルを重ねると観測所名を参照できる。

次にクリックすると気象観測と天気予報を参照できる。

マップの切り替え:黒色「×」印の緑ボタンをクリックして拡大、「-」印の緑ボタンをクリックして縮小、緑色の三角印をクリックして隣りの地図に切り替え


METAR-TAF: